createdAt,value
2018-05-15T00:00:14.955Z,9.80
2018-05-15T00:01:14.934Z,10.30
2018-05-15T00:02:14.910Z,10.40
2018-05-15T00:03:14.883Z,8.20
2018-05-15T00:04:14.860Z,13.10
2018-05-15T00:05:14.838Z,9.50
2018-05-15T00:06:14.813Z,10.50
2018-05-15T00:07:14.795Z,10.00
2018-05-15T00:08:14.766Z,10.70
2018-05-15T00:09:14.743Z,10.20
2018-05-15T00:10:14.720Z,10.50
2018-05-15T00:11:14.697Z,8.30
2018-05-15T00:12:14.673Z,9.20
2018-05-15T00:13:14.649Z,9.50
2018-05-15T00:14:14.623Z,8.80
2018-05-15T00:15:14.600Z,10.00
2018-05-15T00:16:14.575Z,9.20
2018-05-15T00:17:14.553Z,11.60
2018-05-15T00:18:14.535Z,8.10
2018-05-15T00:19:14.504Z,10.60
2018-05-15T00:20:14.482Z,10.50
2018-05-15T00:21:14.460Z,11.10
2018-05-15T00:22:14.433Z,11.10
2018-05-15T00:23:14.412Z,9.30
2018-05-15T00:24:14.387Z,10.20
2018-05-15T00:25:14.364Z,8.20
2018-05-15T00:26:14.338Z,11.70
2018-05-15T00:27:14.316Z,9.40
2018-05-15T00:28:14.291Z,9.60
2018-05-15T00:29:14.268Z,10.90
2018-05-15T00:30:14.247Z,8.80
2018-05-15T00:31:14.221Z,10.00
2018-05-15T00:32:14.197Z,10.30
2018-05-15T00:33:14.174Z,11.00
2018-05-15T00:34:14.153Z,8.60
2018-05-15T00:35:14.125Z,9.30
2018-05-15T00:36:14.101Z,8.80
2018-05-15T00:37:14.082Z,9.40
2018-05-15T00:38:14.056Z,8.40
2018-05-15T00:39:14.031Z,9.00
2018-05-15T00:40:14.008Z,9.50
2018-05-15T00:41:13.985Z,10.00
2018-05-15T00:42:13.959Z,9.70
2018-05-15T00:43:13.937Z,10.40
2018-05-15T00:44:13.996Z,8.80
2018-05-15T00:45:13.887Z,11.30
2018-05-15T00:46:13.864Z,13.40
2018-05-15T00:47:13.847Z,9.30
2018-05-15T00:48:13.816Z,9.00
2018-05-15T00:49:13.793Z,9.70
2018-05-15T00:50:13.776Z,10.30
2018-05-15T00:51:13.751Z,11.30
2018-05-15T00:52:13.724Z,12.40
2018-05-15T00:53:13.702Z,11.80
2018-05-15T00:54:13.671Z,15.50
2018-05-15T00:55:13.651Z,12.80
2018-05-15T00:56:13.632Z,13.80
2018-05-15T00:57:13.609Z,14.80
2018-05-15T00:58:13.579Z,15.40
2018-05-15T00:59:13.554Z,11.30
2018-05-15T01:00:13.534Z,12.60
2018-05-15T01:01:13.512Z,12.70
2018-05-15T01:02:13.484Z,12.10
2018-05-15T01:03:13.463Z,13.20
2018-05-15T01:04:13.439Z,16.00
2018-05-15T01:05:13.417Z,14.40
2018-05-15T01:06:13.391Z,16.30
2018-05-15T01:07:13.360Z,14.30
2018-05-15T01:08:13.339Z,14.40
2018-05-15T01:09:13.318Z,13.90
2018-05-15T01:10:13.294Z,14.80
2018-05-15T01:11:13.267Z,14.00
2018-05-15T01:12:13.246Z,13.70
2018-05-15T01:13:13.216Z,13.10
2018-05-15T01:14:13.197Z,16.10
2018-05-15T01:15:13.171Z,14.10
2018-05-15T01:16:13.150Z,12.60
2018-05-15T01:17:13.123Z,17.20
2018-05-15T01:18:13.105Z,15.20
2018-05-15T01:19:13.080Z,14.50
2018-05-15T01:20:13.056Z,16.00
2018-05-15T01:21:13.028Z,17.90
2018-05-15T01:22:13.009Z,12.70
2018-05-15T01:23:12.977Z,14.30
2018-05-15T01:24:12.966Z,14.80
2018-05-15T01:25:12.932Z,12.90
2018-05-15T01:26:12.917Z,12.10
2018-05-15T01:27:12.892Z,14.00
2018-05-15T01:28:12.857Z,15.90
2018-05-15T01:29:12.836Z,14.90
2018-05-15T01:30:12.809Z,14.20
2018-05-15T01:31:12.790Z,17.70
2018-05-15T01:32:12.762Z,12.40
2018-05-15T01:33:12.738Z,14.10
2018-05-15T01:34:12.725Z,13.40
2018-05-15T01:35:12.699Z,10.80
2018-05-15T01:36:12.667Z,13.00
2018-05-15T01:37:12.642Z,10.50
2018-05-15T01:38:12.626Z,13.80
2018-05-15T01:39:12.602Z,11.80
2018-05-15T01:40:12.570Z,11.60
2018-05-15T01:41:12.549Z,12.50
2018-05-15T01:42:12.527Z,12.10
2018-05-15T01:43:12.502Z,12.10
2018-05-15T01:44:12.474Z,12.10
2018-05-15T01:45:12.454Z,11.90
2018-05-15T01:46:12.429Z,12.60
2018-05-15T01:47:12.405Z,17.70
2018-05-15T01:48:12.383Z,12.90
2018-05-15T01:49:12.356Z,13.00
2018-05-15T01:50:12.334Z,15.00
2018-05-15T01:51:12.314Z,12.30
2018-05-15T01:52:12.279Z,12.80
2018-05-15T01:53:12.263Z,13.30
2018-05-15T01:54:12.231Z,14.10
2018-05-15T01:55:12.209Z,12.50
2018-05-15T01:56:12.191Z,13.50
2018-05-15T01:57:12.160Z,11.30
2018-05-15T01:58:12.143Z,12.10
2018-05-15T01:59:12.114Z,11.50
2018-05-15T02:00:12.091Z,13.80
2018-05-15T02:01:12.064Z,12.20
2018-05-15T02:02:12.045Z,13.50
2018-05-15T02:03:12.020Z,10.80
2018-05-15T02:04:11.998Z,14.20
2018-05-15T02:05:11.970Z,10.60
2018-05-15T02:06:11.944Z,12.90
2018-05-15T02:07:11.917Z,13.10
2018-05-15T02:08:11.901Z,13.20
2018-05-15T02:09:11.868Z,12.80
2018-05-15T02:10:11.853Z,11.50
2018-05-15T02:11:11.829Z,13.00
2018-05-15T02:12:11.794Z,12.60
2018-05-15T02:13:11.780Z,12.80
2018-05-15T02:14:11.747Z,12.40
2018-05-15T02:15:11.727Z,13.80
2018-05-15T02:16:11.744Z,11.70
2018-05-15T02:17:11.681Z,13.30
2018-05-15T02:18:11.657Z,12.40
2018-05-15T02:19:11.633Z,12.10
2018-05-15T02:20:11.658Z,11.00
2018-05-15T02:21:11.588Z,12.80
2018-05-15T02:22:11.553Z,13.90
2018-05-15T02:23:11.531Z,15.20
2018-05-15T02:24:11.510Z,13.40
2018-05-15T02:25:11.485Z,14.50
2018-05-15T02:26:11.461Z,13.00
2018-05-15T02:27:11.432Z,12.10
2018-05-15T02:28:11.414Z,13.50
2018-05-15T02:29:11.383Z,12.80
2018-05-15T02:30:11.366Z,14.00
2018-05-15T02:31:11.343Z,13.10
2018-05-15T02:32:11.314Z,13.90
2018-05-15T02:33:11.295Z,13.20
2018-05-15T02:34:11.267Z,15.90
2018-05-15T02:35:11.245Z,14.70
2018-05-15T02:36:11.214Z,13.20
2018-05-15T02:37:11.194Z,13.40
2018-05-15T02:38:11.165Z,12.40
2018-05-15T02:39:11.140Z,13.30
2018-05-15T02:40:11.116Z,13.40
2018-05-15T02:41:11.092Z,13.30
2018-05-15T02:42:11.077Z,13.90
2018-05-15T02:43:11.041Z,13.40
2018-05-15T02:44:11.019Z,15.00
2018-05-15T02:45:10.997Z,10.80
2018-05-15T02:46:10.976Z,13.60
2018-05-15T02:47:10.944Z,13.80
2018-05-15T02:48:10.929Z,14.00
2018-05-15T02:49:10.893Z,14.00
2018-05-15T02:50:10.879Z,12.50
2018-05-15T02:51:10.855Z,12.80
2018-05-15T02:52:10.822Z,13.90
2018-05-15T02:53:10.806Z,15.40
2018-05-15T02:54:10.777Z,13.60
2018-05-15T02:55:10.757Z,12.40
2018-05-15T02:56:10.724Z,13.90
2018-05-15T02:57:10.700Z,12.80
2018-05-15T02:58:10.674Z,11.50
2018-05-15T02:59:10.653Z,11.30
2018-05-15T03:00:10.633Z,12.50
2018-05-15T03:01:10.600Z,12.60
2018-05-15T03:02:10.589Z,13.80
2018-05-15T03:03:10.560Z,11.50
2018-05-15T03:04:10.527Z,12.30
2018-05-15T03:05:10.555Z,12.80
2018-05-15T03:06:10.484Z,15.30
2018-05-15T03:07:10.454Z,14.40
2018-05-15T03:08:10.438Z,16.60
2018-05-15T03:09:10.410Z,12.80
2018-05-15T03:10:10.385Z,15.10
2018-05-15T03:11:10.358Z,15.10
2018-05-15T03:12:10.345Z,14.50
2018-05-15T03:13:10.307Z,15.10
2018-05-15T03:14:10.290Z,12.80
2018-05-15T03:15:10.270Z,13.70
2018-05-15T03:16:10.232Z,13.70
2018-05-15T03:17:10.217Z,14.40
2018-05-15T03:18:10.183Z,13.90
2018-05-15T03:19:10.167Z,16.00
2018-05-15T03:20:10.143Z,12.70
2018-05-15T03:21:10.117Z,13.90
2018-05-15T03:22:10.093Z,13.90
2018-05-15T03:23:10.068Z,12.40
2018-05-15T03:24:10.042Z,14.00
2018-05-15T03:25:10.021Z,13.50
2018-05-15T03:26:09.988Z,12.60
2018-05-15T03:27:09.973Z,12.60
2018-05-15T03:28:09.942Z,12.40
2018-05-15T03:29:09.922Z,12.20
2018-05-15T03:30:09.887Z,12.60
2018-05-15T03:31:09.870Z,14.40
2018-05-15T03:32:09.841Z,12.10
2018-05-15T03:33:09.818Z,13.60
2018-05-15T03:34:09.792Z,12.20
2018-05-15T03:35:09.766Z,13.90
2018-05-15T03:36:09.747Z,16.10
2018-05-15T03:37:09.725Z,13.40
2018-05-15T03:38:09.697Z,15.30
2018-05-15T03:39:09.668Z,12.50
2018-05-15T03:40:09.644Z,12.20
2018-05-15T03:41:09.623Z,12.70
2018-05-15T03:42:09.595Z,14.80
2018-05-15T03:43:09.570Z,14.20
2018-05-15T03:44:09.553Z,14.70
2018-05-15T03:45:09.525Z,12.80
2018-05-15T03:46:09.496Z,14.70
2018-05-15T03:47:09.477Z,13.80
2018-05-15T03:48:09.450Z,13.80
2018-05-15T03:49:09.432Z,15.10
2018-05-15T03:50:09.394Z,12.80
2018-05-15T03:51:09.378Z,14.30
2018-05-15T03:52:09.349Z,14.40
2018-05-15T03:53:09.322Z,15.20
2018-05-15T03:54:09.299Z,12.60
2018-05-15T03:55:09.275Z,13.30
2018-05-15T03:56:09.249Z,13.20
2018-05-15T03:57:09.284Z,12.70
2018-05-15T03:58:09.198Z,13.30
2018-05-15T03:59:09.184Z,16.10
2018-05-15T04:00:09.147Z,13.10
2018-05-15T04:01:09.159Z,14.90
2018-05-15T04:02:09.104Z,10.70
2018-05-15T04:03:09.074Z,13.70
2018-05-15T04:04:09.061Z,11.70
2018-05-15T04:05:09.027Z,11.60
2018-05-15T04:06:09.003Z,12.40
2018-05-15T04:07:08.992Z,14.30
2018-05-15T04:08:08.955Z,11.60
2018-05-15T04:09:08.922Z,12.90
2018-05-15T04:10:08.908Z,13.50
2018-05-15T04:11:08.887Z,11.00
2018-05-15T04:12:08.855Z,12.90
2018-05-15T04:13:08.832Z,10.90
2018-05-15T04:14:08.803Z,13.80
2018-05-15T04:15:08.775Z,12.50
2018-05-15T04:16:08.762Z,12.70
2018-05-15T04:17:09.451Z,11.50
2018-05-15T04:18:08.710Z,11.30
2018-05-15T04:19:08.685Z,13.10
2018-05-15T04:20:08.650Z,12.70
2018-05-15T04:21:08.636Z,12.00
2018-05-15T04:22:08.603Z,14.40
2018-05-15T04:23:08.578Z,14.00
2018-05-15T04:24:08.554Z,12.40
2018-05-15T04:25:08.529Z,13.00
2018-05-15T04:26:08.505Z,12.80
2018-05-15T04:27:08.489Z,11.00
2018-05-15T04:28:08.462Z,11.40
2018-05-15T04:29:08.428Z,11.50
2018-05-15T04:30:08.413Z,10.60
2018-05-15T04:31:08.385Z,15.10
2018-05-15T04:32:08.356Z,13.80
2018-05-15T04:33:08.342Z,11.20
2018-05-15T04:34:08.307Z,11.40
2018-05-15T04:35:08.335Z,11.30
2018-05-15T04:36:08.254Z,13.10
2018-05-15T04:37:08.246Z,12.60
2018-05-15T04:38:08.206Z,13.20
2018-05-15T04:39:08.196Z,12.90
2018-05-15T04:40:08.162Z,12.40
2018-05-15T04:41:08.138Z,13.40
2018-05-15T04:42:08.111Z,11.80
2018-05-15T04:43:08.088Z,13.90
2018-05-15T04:44:08.064Z,13.50
2018-05-15T04:45:08.036Z,12.90
2018-05-15T04:46:08.007Z,14.30
2018-05-15T04:47:07.981Z,13.90
2018-05-15T04:48:07.970Z,12.90
2018-05-15T04:49:07.936Z,13.50
2018-05-15T04:50:07.908Z,16.20
2018-05-15T04:51:07.882Z,14.90
2018-05-15T04:52:07.860Z,18.10
2018-05-15T04:53:07.837Z,14.20
2018-05-15T04:54:07.808Z,12.40
2018-05-15T04:55:07.779Z,12.10
2018-05-15T04:56:07.764Z,12.60
2018-05-15T04:57:07.737Z,13.80
2018-05-15T04:58:07.717Z,12.30
2018-05-15T04:59:07.691Z,16.00
2018-05-15T05:00:07.668Z,10.50
2018-05-15T05:01:07.632Z,11.60
2018-05-15T05:02:07.636Z,11.50
2018-05-15T05:03:07.591Z,13.50
2018-05-15T05:04:07.555Z,11.70
2018-05-15T05:05:07.533Z,11.10
2018-05-15T05:06:07.518Z,12.50
2018-05-15T05:07:07.485Z,13.20
2018-05-15T05:08:07.467Z,14.80
2018-05-15T05:09:07.439Z,14.50
2018-05-15T05:10:07.411Z,14.70
2018-05-15T05:11:07.385Z,13.80
2018-05-15T05:12:07.362Z,11.80
2018-05-15T05:13:07.341Z,13.40
2018-05-15T05:14:07.315Z,15.60
2018-05-15T05:15:07.287Z,11.60
2018-05-15T05:16:07.272Z,13.40
2018-05-15T05:17:07.233Z,10.20
2018-05-15T05:18:07.217Z,10.90
2018-05-15T05:19:07.182Z,15.20
2018-05-15T05:20:07.171Z,13.60
2018-05-15T05:21:07.163Z,14.70
2018-05-15T05:22:07.185Z,12.60
2018-05-15T05:23:07.093Z,11.20
2018-05-15T05:24:07.058Z,10.90
2018-05-15T05:25:07.043Z,12.20
2018-05-15T05:26:07.012Z,12.30
2018-05-15T05:27:06.993Z,10.80
2018-05-15T05:28:06.965Z,12.10
2018-05-15T05:29:06.938Z,11.50
2018-05-15T05:30:06.919Z,13.80
2018-05-15T05:31:06.890Z,11.90
2018-05-15T05:32:06.863Z,12.10
2018-05-15T05:33:06.844Z,10.90
2018-05-15T05:34:06.817Z,10.80
2018-05-15T05:35:06.793Z,13.30
2018-05-15T05:36:06.763Z,11.90
2018-05-15T05:37:06.745Z,12.30
2018-05-15T05:38:06.717Z,12.90
2018-05-15T05:39:06.690Z,14.90
2018-05-15T05:40:06.721Z,14.20
2018-05-15T05:41:06.642Z,14.90
2018-05-15T05:42:06.621Z,11.70
2018-05-15T05:43:06.594Z,10.20
2018-05-15T05:44:06.566Z,14.40
2018-05-15T05:45:06.540Z,14.60
2018-05-15T05:46:06.524Z,13.50
2018-05-15T05:47:06.495Z,13.90
2018-05-15T05:48:06.471Z,11.60
2018-05-15T05:49:06.450Z,11.20
2018-05-15T05:50:06.417Z,13.60
2018-05-15T05:51:06.399Z,12.40
2018-05-15T05:52:06.485Z,11.10
2018-05-15T05:53:06.356Z,12.20
2018-05-15T05:54:06.324Z,12.50
2018-05-15T05:55:06.301Z,12.70
2018-05-15T05:56:06.272Z,11.80
2018-05-15T05:57:06.250Z,11.70
2018-05-15T05:58:06.226Z,12.00
2018-05-15T05:59:06.204Z,11.10
2018-05-15T06:00:06.169Z,13.70
2018-05-15T06:01:06.170Z,13.00
2018-05-15T06:02:06.131Z,14.40
2018-05-15T06:03:06.102Z,14.00
2018-05-15T06:04:06.074Z,13.70
2018-05-15T06:05:06.054Z,12.70
2018-05-15T06:06:06.025Z,12.60
2018-05-15T06:07:06.020Z,13.10
2018-05-15T06:08:05.981Z,12.30
2018-05-15T06:09:05.946Z,10.50
2018-05-15T06:10:05.933Z,14.10
2018-05-15T06:11:05.902Z,14.00
2018-05-15T06:12:05.879Z,12.00
2018-05-15T06:13:05.854Z,13.10
2018-05-15T06:14:05.840Z,12.50
2018-05-15T06:15:05.806Z,12.90
2018-05-15T06:16:05.779Z,13.90
2018-05-15T06:17:05.758Z,11.90
2018-05-15T06:18:05.735Z,11.60
2018-05-15T06:19:05.711Z,14.80
2018-05-15T06:20:05.779Z,11.20
2018-05-15T06:21:05.708Z,11.70
2018-05-15T06:22:05.630Z,11.00
2018-05-15T06:23:05.614Z,11.70
2018-05-15T06:24:05.579Z,11.80
2018-05-15T06:25:05.558Z,11.70
2018-05-15T06:26:05.547Z,12.00
2018-05-15T06:27:05.513Z,11.70
2018-05-15T06:28:05.483Z,11.40
2018-05-15T06:29:05.460Z,11.50
2018-05-15T06:30:05.441Z,11.80
2018-05-15T06:31:05.418Z,11.30
2018-05-15T06:32:05.384Z,9.60
2018-05-15T06:33:05.373Z,11.90
2018-05-15T06:34:05.377Z,11.90
2018-05-15T06:35:05.315Z,11.40
2018-05-15T06:36:05.294Z,10.60
2018-05-15T06:37:05.339Z,9.80
2018-05-15T06:38:05.245Z,11.90
2018-05-15T06:39:05.219Z,12.50
2018-05-15T06:40:06.292Z,12.90
2018-05-15T06:41:05.170Z,12.70
2018-05-15T06:42:05.141Z,11.90
2018-05-15T06:43:05.117Z,14.60
2018-05-15T06:44:05.096Z,14.90
2018-05-15T06:45:05.069Z,15.50
2018-05-15T06:46:05.056Z,14.50
2018-05-15T06:47:05.018Z,13.00
2018-05-15T06:48:05.000Z,15.30
2018-05-15T06:49:04.967Z,12.20
2018-05-15T06:50:04.954Z,13.90
2018-05-15T06:51:04.929Z,10.00
2018-05-15T06:52:04.896Z,12.30
2018-05-15T06:53:04.893Z,10.70
2018-05-15T06:54:04.846Z,10.50
2018-05-15T06:55:04.824Z,11.10
2018-05-15T06:56:04.803Z,12.60
2018-05-15T06:57:04.777Z,12.10
2018-05-15T06:58:04.756Z,10.40
2018-05-15T06:59:04.730Z,10.40
2018-05-15T07:00:04.780Z,11.20
2018-05-15T07:01:04.681Z,12.10
2018-05-15T07:02:04.654Z,12.40
2018-05-15T07:03:04.631Z,10.60
2018-05-15T07:04:04.609Z,11.90
2018-05-15T07:05:04.587Z,12.80
2018-05-15T07:06:04.554Z,9.90
2018-05-15T07:07:04.529Z,13.20
2018-05-15T07:08:04.514Z,10.90
2018-05-15T07:09:04.482Z,11.10
2018-05-15T07:10:04.469Z,14.00
2018-05-15T07:11:04.438Z,9.90
2018-05-15T07:12:04.418Z,9.20
2018-05-15T07:13:04.384Z,11.90
2018-05-15T07:14:04.390Z,10.30
2018-05-15T07:15:04.341Z,10.90
2018-05-15T07:16:04.316Z,9.30
2018-05-15T07:17:04.293Z,9.80
2018-05-15T07:18:04.270Z,9.90
2018-05-15T07:19:04.244Z,12.60
2018-05-15T07:20:04.222Z,11.30
2018-05-15T07:21:04.190Z,9.40
2018-05-15T07:22:04.171Z,11.10
2018-05-15T07:23:04.151Z,8.80
2018-05-15T07:24:04.121Z,9.00
2018-05-15T07:25:04.102Z,9.60
2018-05-15T07:26:04.074Z,9.20
2018-05-15T07:27:04.054Z,9.00
2018-05-15T07:28:04.023Z,8.30
2018-05-15T07:29:04.004Z,9.80
2018-05-15T07:30:03.983Z,6.90
2018-05-15T07:31:03.958Z,8.90
2018-05-15T07:32:03.928Z,8.70
2018-05-15T07:33:03.972Z,8.00
2018-05-15T07:34:03.885Z,8.40
2018-05-15T07:35:03.856Z,9.60
2018-05-15T07:36:03.828Z,8.40
2018-05-15T07:37:03.817Z,7.80
2018-05-15T07:38:03.787Z,9.30
2018-05-15T07:39:03.756Z,9.40
2018-05-15T07:40:03.741Z,8.20
2018-05-15T07:41:03.710Z,7.90
2018-05-15T07:42:03.700Z,7.50
2018-05-15T07:43:03.666Z,8.30
2018-05-15T07:44:03.638Z,9.00
2018-05-15T07:45:03.612Z,7.90
2018-05-15T07:46:03.599Z,10.10
2018-05-15T07:47:03.569Z,7.90
2018-05-15T07:48:03.544Z,9.70
2018-05-15T07:49:03.523Z,8.60
2018-05-15T07:50:03.497Z,8.20
2018-05-15T07:51:03.467Z,9.80
2018-05-15T07:52:03.450Z,9.50
2018-05-15T07:53:03.424Z,8.10
2018-05-15T07:54:03.408Z,9.10
2018-05-15T07:55:03.376Z,8.30
2018-05-15T07:56:03.353Z,7.60
2018-05-15T07:57:03.324Z,8.90
2018-05-15T07:58:03.305Z,7.70
2018-05-15T07:59:03.293Z,9.20
2018-05-15T08:00:03.259Z,7.40
2018-05-15T08:01:03.230Z,11.30
2018-05-15T08:02:03.245Z,7.70
2018-05-15T08:03:03.187Z,8.80
2018-05-15T08:04:03.157Z,7.60
2018-05-15T08:05:03.136Z,8.50
2018-05-15T08:06:03.113Z,8.10
2018-05-15T08:07:03.089Z,9.40
2018-05-15T08:08:03.066Z,7.40
2018-05-15T08:09:03.039Z,8.70
2018-05-15T08:10:03.013Z,8.90
2018-05-15T08:11:02.987Z,8.70
2018-05-15T08:12:02.967Z,7.70
2018-05-15T08:13:02.941Z,9.00
2018-05-15T08:14:02.925Z,7.40
2018-05-15T08:15:02.898Z,9.30
2018-05-15T08:16:02.871Z,10.00
2018-05-15T08:17:02.859Z,7.10
2018-05-15T08:18:02.824Z,7.20
2018-05-15T08:19:02.808Z,7.40
2018-05-15T08:20:02.776Z,8.90
2018-05-15T08:21:02.757Z,14.70
2018-05-15T08:22:02.726Z,8.90
2018-05-15T08:23:02.708Z,8.70
2018-05-15T08:24:02.681Z,11.60
2018-05-15T08:25:02.663Z,10.00
2018-05-15T08:26:02.640Z,8.20
2018-05-15T08:27:02.622Z,9.90
2018-05-15T08:28:02.588Z,7.00
2018-05-15T08:29:02.567Z,8.50
2018-05-15T08:30:02.536Z,6.70
2018-05-15T08:31:02.513Z,9.20
2018-05-15T08:32:02.493Z,10.80
2018-05-15T08:33:02.473Z,7.70
2018-05-15T08:34:02.446Z,7.40
2018-05-15T08:35:02.419Z,7.80
2018-05-15T08:36:02.400Z,7.50
2018-05-15T08:37:02.368Z,8.10
2018-05-15T08:38:02.355Z,9.60
2018-05-15T08:39:02.332Z,6.20
2018-05-15T08:40:02.304Z,5.90
2018-05-15T08:41:02.278Z,9.60
2018-05-15T08:42:02.256Z,9.30
2018-05-15T08:43:02.230Z,7.00
2018-05-15T08:44:02.215Z,10.20
2018-05-15T08:45:02.187Z,6.60
2018-05-15T08:46:02.165Z,8.90
2018-05-15T08:47:02.130Z,5.90
2018-05-15T08:48:02.118Z,8.60
2018-05-15T08:49:02.085Z,7.30
2018-05-15T08:50:02.069Z,9.10
2018-05-15T08:51:02.047Z,10.00
2018-05-15T08:52:02.044Z,8.00
2018-05-15T08:53:01.991Z,9.50
2018-05-15T08:54:01.975Z,9.00
2018-05-15T08:55:01.948Z,8.80
2018-05-15T08:56:01.927Z,6.60
2018-05-15T08:57:01.895Z,7.70
2018-05-15T08:58:01.880Z,8.20
2018-05-15T08:59:01.849Z,6.40
2018-05-15T09:00:01.831Z,10.20
2018-05-15T09:01:01.808Z,6.30
2018-05-15T09:02:01.782Z,7.10
2018-05-15T09:03:01.756Z,8.70
2018-05-15T09:04:01.735Z,8.90
2018-05-15T09:05:01.714Z,7.20
2018-05-15T09:06:01.684Z,7.90
2018-05-15T09:07:01.661Z,6.40
2018-05-15T09:08:01.644Z,7.80
2018-05-15T09:09:01.619Z,9.00
2018-05-15T09:10:01.595Z,9.40
2018-05-15T09:11:01.577Z,7.70
2018-05-15T09:12:01.541Z,7.20
2018-05-15T09:13:01.523Z,5.80
2018-05-15T09:14:01.500Z,7.20
2018-05-15T09:15:01.472Z,8.40
2018-05-15T09:16:01.456Z,8.00
2018-05-15T09:17:01.422Z,5.90
2018-05-15T09:18:01.402Z,6.40
2018-05-15T09:19:01.383Z,6.70
2018-05-15T09:20:01.359Z,7.00
2018-05-15T09:21:01.328Z,6.20
2018-05-15T09:22:01.315Z,7.10
2018-05-15T09:23:01.285Z,6.80
2018-05-15T09:24:01.267Z,7.30
2018-05-15T09:25:01.244Z,8.40
2018-05-15T09:26:01.210Z,7.70
2018-05-15T09:27:01.190Z,7.10
2018-05-15T09:28:01.170Z,9.20
2018-05-15T09:29:01.141Z,8.50
2018-05-15T09:30:01.126Z,6.20
2018-05-15T09:31:01.097Z,8.60
2018-05-15T09:32:01.076Z,5.90
2018-05-15T09:33:01.051Z,6.10
2018-05-15T09:34:01.024Z,9.20
2018-05-15T09:35:01.006Z,6.10
2018-05-15T09:36:00.984Z,7.40
2018-05-15T09:37:00.957Z,7.00
2018-05-15T09:38:00.936Z,7.00
2018-05-15T09:39:00.913Z,6.20
2018-05-15T09:40:00.888Z,6.50
2018-05-15T09:41:00.866Z,7.70
2018-05-15T09:42:00.841Z,7.30
2018-05-15T09:43:00.843Z,6.70
2018-05-15T09:44:00.798Z,7.50
2018-05-15T09:45:00.770Z,5.50
2018-05-15T09:46:00.750Z,6.00
2018-05-15T09:47:00.851Z,10.00
2018-05-15T09:48:00.701Z,8.50
2018-05-15T09:49:00.679Z,7.40
2018-05-15T09:50:00.653Z,8.00
2018-05-15T09:51:00.634Z,7.70
2018-05-15T09:52:00.612Z,8.10
2018-05-15T09:53:00.581Z,7.50
2018-05-15T09:54:00.566Z,8.90
2018-05-15T09:55:00.543Z,8.10
2018-05-15T09:56:00.511Z,6.40
2018-05-15T09:57:00.490Z,7.60
2018-05-15T09:58:00.465Z,8.10
2018-05-15T09:59:00.441Z,8.20
2018-05-15T10:00:00.427Z,7.40
2018-05-15T10:01:00.393Z,5.50
2018-05-15T10:02:00.380Z,13.60
2018-05-15T10:03:00.359Z,7.60
2018-05-15T10:04:00.326Z,5.00
2018-05-15T10:05:00.311Z,7.90
2018-05-15T10:06:00.278Z,8.30
2018-05-15T10:07:00.263Z,8.00
2018-05-15T10:08:00.289Z,6.30
2018-05-15T10:09:00.217Z,6.90
2018-05-15T10:10:00.185Z,9.40
2018-05-15T10:11:00.168Z,6.30
2018-05-15T10:12:00.144Z,8.30
2018-05-15T10:13:00.123Z,6.00
2018-05-15T10:14:00.103Z,9.00
2018-05-15T10:15:00.086Z,9.50
2018-05-15T10:16:00.045Z,8.40
2018-05-15T10:17:00.034Z,7.60
2018-05-15T10:18:00.010Z,7.20
2018-05-15T10:18:59.981Z,8.50
2018-05-15T10:19:59.978Z,12.40
2018-05-15T10:20:59.936Z,9.20
2018-05-15T10:21:59.964Z,7.90
2018-05-15T10:22:59.891Z,7.70
2018-05-15T10:23:59.870Z,6.80
2018-05-15T10:24:59.838Z,5.70
2018-05-15T10:25:59.818Z,6.90
2018-05-15T10:26:59.795Z,9.00
2018-05-15T10:27:59.770Z,6.40
2018-05-15T10:28:59.748Z,7.10
2018-05-15T10:29:59.802Z,6.60
2018-05-15T10:30:59.706Z,10.20
2018-05-15T10:31:59.679Z,7.70
2018-05-15T10:32:59.658Z,7.00
2018-05-15T10:33:59.641Z,6.30
2018-05-15T10:34:59.618Z,10.10
2018-05-15T10:35:59.590Z,7.10
2018-05-15T10:36:59.569Z,8.50
2018-05-15T10:37:59.546Z,7.30
2018-05-15T10:38:59.526Z,7.50
2018-05-15T10:39:59.494Z,8.30
2018-05-15T10:40:59.479Z,8.40
2018-05-15T10:41:59.458Z,7.40
2018-05-15T10:42:59.432Z,7.50
2018-05-15T10:43:59.500Z,6.50
2018-05-15T10:44:59.385Z,9.30
2018-05-15T10:45:59.360Z,8.60
2018-05-15T10:46:59.343Z,8.90
2018-05-15T10:47:59.312Z,7.40
2018-05-15T10:48:59.301Z,8.80
2018-05-15T10:49:59.266Z,13.30
2018-05-15T10:50:59.241Z,7.80
2018-05-15T10:51:59.233Z,6.80
2018-05-15T10:52:59.199Z,9.00
2018-05-15T10:53:59.263Z,7.10
2018-05-15T10:54:59.187Z,6.10
2018-05-15T10:55:59.230Z,6.30
2018-05-15T10:56:59.114Z,7.60
2018-05-15T10:57:59.099Z,8.40
2018-05-15T10:58:59.076Z,10.20
2018-05-15T10:59:59.042Z,7.50
2018-05-15T11:00:59.039Z,7.00
2018-05-15T11:01:59.001Z,7.80
2018-05-15T11:02:58.982Z,9.10
2018-05-15T11:03:58.952Z,6.60
2018-05-15T11:04:58.927Z,6.40
2018-05-15T11:05:58.914Z,6.40
2018-05-15T11:06:58.886Z,9.60
2018-05-15T11:07:58.865Z,7.90
2018-05-15T11:08:58.845Z,7.70
2018-05-15T11:09:58.879Z,7.00
2018-05-15T11:10:58.802Z,8.20
2018-05-15T11:11:58.775Z,7.10
2018-05-15T11:12:58.752Z,5.90
2018-05-15T11:13:58.726Z,8.00
2018-05-15T11:14:58.710Z,6.40
2018-05-15T11:15:58.684Z,7.90
2018-05-15T11:16:58.666Z,7.30
2018-05-15T11:17:58.642Z,7.40
2018-05-15T11:18:58.618Z,7.60
2018-05-15T11:19:58.598Z,7.50
2018-05-15T11:20:58.572Z,10.50
2018-05-15T11:21:58.567Z,9.90
2018-05-15T11:22:58.529Z,6.90
2018-05-15T11:23:58.511Z,7.90
2018-05-15T11:24:58.484Z,9.10
2018-05-15T11:25:58.467Z,8.00
2018-05-15T11:26:58.438Z,6.90
2018-05-15T11:27:58.423Z,6.70
2018-05-15T11:28:58.402Z,7.60
2018-05-15T11:29:58.377Z,8.30
2018-05-15T11:30:58.355Z,10.40
2018-05-15T11:31:58.329Z,8.60
2018-05-15T11:32:58.307Z,9.70
2018-05-15T11:33:58.286Z,9.80
2018-05-15T11:34:58.266Z,9.80
2018-05-15T11:35:58.290Z,10.10
2018-05-15T11:36:58.223Z,7.90
2018-05-15T11:37:58.198Z,8.60
2018-05-15T11:38:58.528Z,7.60
2018-05-15T11:39:58.152Z,6.30
2018-05-15T11:40:58.137Z,6.80
2018-05-15T11:41:58.196Z,7.90
2018-05-15T11:42:58.096Z,9.80
2018-05-15T11:43:58.061Z,7.90
2018-05-15T11:44:58.048Z,8.80
2018-05-15T11:45:58.024Z,8.80
2018-05-15T11:46:58.004Z,8.80
2018-05-15T11:47:58.092Z,7.40
2018-05-15T11:48:58.635Z,7.30
2018-05-15T11:49:58.401Z,10.10
2018-05-15T11:50:58.747Z,6.50
2018-05-15T11:51:58.885Z,7.40
2018-05-15T11:52:58.741Z,6.40
2018-05-15T11:53:57.952Z,6.00
2018-05-15T11:54:57.826Z,10.90
2018-05-15T11:55:57.873Z,6.90
2018-05-15T11:56:57.775Z,7.70
2018-05-15T11:57:57.808Z,11.40
2018-05-15T11:58:57.737Z,7.20
2018-05-15T11:59:57.817Z,7.10
2018-05-15T12:00:57.692Z,6.30
2018-05-15T12:01:57.675Z,7.70
2018-05-15T12:02:57.653Z,8.60
2018-05-15T12:03:57.718Z,8.40
2018-05-15T12:04:57.608Z,8.30
2018-05-15T12:05:57.579Z,9.90
2018-05-15T12:06:57.556Z,7.30
2018-05-15T12:07:57.597Z,6.40
2018-05-15T12:08:57.576Z,6.70
2018-05-15T12:09:57.499Z,7.10
2018-05-15T12:10:57.525Z,9.10
2018-05-15T12:11:57.445Z,9.80
2018-05-15T12:12:57.501Z,5.70
2018-05-15T12:13:57.401Z,8.40
2018-05-15T12:14:57.452Z,8.40
2018-05-15T12:15:57.375Z,7.20
2018-05-15T12:16:57.344Z,7.20
2018-05-15T12:17:57.316Z,9.10
2018-05-15T12:18:57.296Z,7.40
2018-05-15T12:19:57.272Z,7.00
2018-05-15T12:20:57.333Z,7.90
2018-05-15T12:21:57.236Z,10.20
2018-05-15T12:22:57.204Z,8.60
2018-05-15T12:23:57.187Z,6.30
2018-05-15T12:24:57.160Z,8.70
2018-05-15T12:25:57.141Z,6.10
2018-05-15T12:26:57.115Z,7.70
2018-05-15T12:27:57.103Z,5.40
2018-05-15T12:28:57.069Z,9.20
2018-05-15T12:29:57.112Z,7.40
2018-05-15T12:30:57.029Z,6.90
2018-05-15T12:31:57.004Z,7.30
2018-05-15T12:32:56.985Z,7.40
2018-05-15T12:33:56.971Z,10.10
2018-05-15T12:34:56.945Z,7.10
2018-05-15T12:35:56.961Z,9.60
2018-05-15T12:36:56.899Z,8.40
2018-05-15T12:37:56.874Z,7.80
2018-05-15T12:38:56.848Z,9.20
2018-05-15T12:39:56.835Z,7.20
2018-05-15T12:40:56.809Z,7.40
2018-05-15T12:41:56.978Z,7.90
2018-05-15T12:42:56.762Z,6.80
2018-05-15T12:43:56.741Z,7.10
2018-05-15T12:44:56.722Z,5.70
2018-05-15T12:45:56.693Z,7.30
2018-05-15T12:46:56.678Z,6.50
2018-05-15T12:47:56.669Z,8.10
2018-05-15T12:48:56.635Z,7.00
2018-05-15T12:49:56.608Z,7.30
2018-05-15T12:50:56.587Z,5.90
2018-05-15T12:51:56.562Z,5.20
2018-05-15T12:52:56.543Z,6.30
2018-05-15T12:53:56.574Z,7.80
2018-05-15T12:54:56.502Z,8.00
2018-05-15T12:55:56.470Z,5.70
2018-05-15T12:56:56.451Z,5.60
2018-05-15T12:57:56.433Z,5.40
2018-05-15T12:58:56.410Z,5.90
2018-05-15T12:59:56.393Z,5.60
2018-05-15T13:00:56.368Z,6.90
2018-05-15T13:01:56.342Z,7.60
2018-05-15T13:02:56.324Z,6.10
2018-05-15T13:03:56.298Z,6.90